createdAt,value
2022-08-20T00:00:15.204Z,18.9
2022-08-20T00:02:19.137Z,18.9
2022-08-20T00:04:23.060Z,18.9
2022-08-20T00:06:26.992Z,18.9
2022-08-20T00:08:33.743Z,18.9
2022-08-20T00:10:37.712Z,18.9
2022-08-20T00:12:41.620Z,18.8
2022-08-20T00:14:45.535Z,18.8
2022-08-20T00:16:49.451Z,18.8
2022-08-20T00:27:11.948Z,18.8
2022-08-20T00:29:15.899Z,18.9
2022-08-20T00:31:19.795Z,18.8
2022-08-20T00:33:23.747Z,18.9
2022-08-20T00:35:27.693Z,18.8
2022-08-20T00:37:34.446Z,18.8
2022-08-20T00:39:38.436Z,18.8
2022-08-20T00:41:42.298Z,18.8
2022-08-20T00:43:46.258Z,18.9
2022-08-20T00:45:50.157Z,19
2022-08-20T00:47:54.094Z,18.9
2022-08-20T00:49:58.031Z,18.9
2022-08-20T00:52:04.762Z,19
2022-08-20T00:54:08.708Z,18.9
2022-08-20T00:56:12.626Z,18.9
2022-08-20T00:58:30.624Z,19
2022-08-20T01:00:34.513Z,18.9
2022-08-20T01:10:58.480Z,18.9
2022-08-20T01:17:10.259Z,19
2022-08-20T01:25:28.820Z,18.9
2022-08-20T01:27:33.670Z,18.9
2022-08-20T01:31:40.586Z,18.9
2022-08-20T01:35:51.281Z,18.9
2022-08-20T01:37:55.341Z,18.8
2022-08-20T01:39:59.204Z,18.8
2022-08-20T01:42:03.064Z,18.8
2022-08-20T01:44:06.993Z,18.8
2022-08-20T01:46:10.936Z,18.8
2022-08-20T01:50:21.636Z,18.8
2022-08-20T01:53:28.940Z,18.7
2022-08-20T01:55:32.857Z,18.7
2022-08-20T01:59:40.730Z,18.7
2022-08-20T02:01:47.553Z,18.7
2022-08-20T02:03:51.419Z,18.6
2022-08-20T02:05:55.353Z,18.6
2022-08-20T02:07:59.310Z,18.6
2022-08-20T02:10:03.223Z,18.6
2022-08-20T02:12:07.159Z,18.6
2022-08-20T02:14:11.089Z,18.6
2022-08-20T02:18:21.787Z,18.7
2022-08-20T02:20:25.753Z,18.6
2022-08-20T02:22:29.658Z,18.6
2022-08-20T02:24:33.608Z,18.7
2022-08-20T02:28:41.458Z,18.6
2022-08-20T02:30:48.232Z,18.5
2022-08-20T02:34:56.085Z,18.5
2022-08-20T02:37:00.051Z,18.5
2022-08-20T02:43:11.818Z,18.6
2022-08-20T02:45:18.956Z,18.5
2022-08-20T02:47:22.528Z,18.5
2022-08-20T02:50:29.831Z,18.5
2022-08-20T02:52:33.776Z,18.5
2022-08-20T02:54:37.689Z,18.5
2022-08-20T02:56:41.634Z,18.6
2022-08-20T02:58:48.412Z,18.6
2022-08-20T03:00:52.344Z,18.6
2022-08-20T03:02:56.263Z,18.6
2022-08-20T03:05:00.203Z,18.6
2022-08-20T03:07:04.153Z,18.5
2022-08-20T03:09:08.076Z,18.4
2022-08-20T03:11:12.013Z,18.4
2022-08-20T03:13:18.758Z,18.2
2022-08-20T03:15:22.724Z,18.2
2022-08-20T03:17:26.771Z,18.1
2022-08-20T03:19:30.598Z,18.2
2022-08-20T03:21:34.533Z,18.1
2022-08-20T03:23:40.381Z,18.1
2022-08-20T03:25:42.385Z,18.1
2022-08-20T03:27:49.886Z,18.1
2022-08-20T03:29:53.106Z,18.1
2022-08-20T03:31:57.055Z,18.2
2022-08-20T03:34:00.971Z,18.3
2022-08-20T03:47:30.836Z,18.2
2022-08-20T03:49:34.757Z,18.2
2022-08-20T03:51:56.385Z,18.2
2022-08-20T03:53:42.637Z,18.1
2022-08-20T03:55:53.829Z,18.1
2022-08-20T03:57:53.303Z,18.1
2022-08-20T03:59:58.399Z,18.1
2022-08-20T04:02:01.397Z,18.1
2022-08-20T04:04:05.151Z,18.1
2022-08-20T04:06:09.089Z,17.9
2022-08-20T04:08:12.990Z,17.9
2022-08-20T04:12:23.736Z,17.9
2022-08-20T04:14:27.662Z,17.9
2022-08-20T04:16:31.629Z,18
2022-08-20T04:18:35.597Z,18
2022-08-20T04:20:39.517Z,18
2022-08-20T04:22:43.448Z,18
2022-08-20T04:24:50.193Z,18
2022-08-20T04:26:54.126Z,17.9
2022-08-20T04:28:58.061Z,18
2022-08-20T04:31:02.008Z,18
2022-08-20T04:33:05.939Z,17.9
2022-08-20T04:37:16.900Z,17.8
2022-08-20T04:39:20.560Z,18
2022-08-20T04:41:24.601Z,18.1
2022-08-20T04:43:28.441Z,18.2
2022-08-20T04:45:58.172Z,18.1
2022-08-20T04:48:02.094Z,18.1
2022-08-20T04:50:06.039Z,18.1
2022-08-20T04:52:12.797Z,18.1
2022-08-20T04:54:16.706Z,18
2022-08-20T04:56:20.646Z,17.9
2022-08-20T04:58:24.601Z,18
2022-08-20T05:00:28.503Z,18
2022-08-20T05:02:32.464Z,18
2022-08-20T05:04:36.384Z,17.9
2022-08-20T05:06:47.097Z,17.9
2022-08-20T05:08:47.088Z,18
2022-08-20T05:10:51.026Z,17.9
2022-08-20T05:12:57.088Z,18
2022-08-20T05:14:58.895Z,18
2022-08-20T05:17:02.827Z,17.9
2022-08-20T05:19:06.748Z,17.9
2022-08-20T05:21:13.511Z,17.8
2022-08-20T05:23:17.438Z,17.8
2022-08-20T05:25:21.357Z,17.8
2022-08-20T05:27:25.291Z,17.8
2022-08-20T05:29:29.240Z,17.9
2022-08-20T05:31:33.576Z,17.9
2022-08-20T05:33:37.108Z,18
2022-08-20T05:35:43.856Z,18
2022-08-20T05:37:47.784Z,18
2022-08-20T05:39:51.822Z,18
2022-08-20T05:40:55.107Z,18.1
2022-08-20T05:45:02.980Z,18.2
2022-08-20T05:47:06.897Z,18.2
2022-08-20T05:49:13.691Z,18.2
2022-08-20T05:53:21.519Z,18.1
2022-08-20T05:55:25.455Z,18
2022-08-20T05:57:29.377Z,18
2022-08-20T05:59:33.328Z,18
2022-08-20T06:01:37.280Z,17.9
2022-08-20T06:03:44.020Z,17.9
2022-08-20T06:05:47.945Z,17.8
2022-08-20T06:07:51.954Z,17.9
2022-08-20T06:09:55.809Z,17.8
2022-08-20T06:11:59.765Z,17.8
2022-08-20T06:14:03.717Z,17.8
2022-08-20T06:16:07.634Z,17.8
2022-08-20T06:18:28.274Z,17.9
2022-08-20T06:22:26.872Z,18.1
2022-08-20T06:28:34.058Z,18.4
2022-08-20T06:32:44.772Z,18.5
2022-08-20T06:34:50.173Z,18.6
2022-08-20T06:36:52.665Z,18.7
2022-08-20T06:37:56.253Z,18.9
2022-08-20T06:42:03.862Z,19
2022-08-20T06:46:14.574Z,19.2
2022-08-20T06:48:18.484Z,19.3
2022-08-20T06:50:22.444Z,19.3
2022-08-20T06:56:34.206Z,19.8
2022-08-20T06:58:38.910Z,19.7
2022-08-20T07:00:44.946Z,20.1
2022-08-20T07:02:48.887Z,20.4
2022-08-20T07:04:54.268Z,21
2022-08-20T07:06:58.166Z,20.8
2022-08-20T07:09:02.080Z,20.7
2022-08-20T07:11:06.002Z,20.6
2022-08-20T07:13:09.991Z,20.7
2022-08-20T07:15:16.679Z,20.7
2022-08-20T07:17:21.911Z,20.7
2022-08-20T07:19:24.513Z,20.5
2022-08-20T07:21:28.437Z,20.4
2022-08-20T07:23:32.366Z,20.3
2022-08-20T07:25:36.310Z,20.4
2022-08-20T07:27:40.205Z,20.6
2022-08-20T07:29:46.983Z,23.4
2022-08-20T07:31:50.881Z,24.3
2022-08-20T07:33:54.769Z,25.3
2022-08-20T07:34:58.234Z,25.5
2022-08-20T07:37:02.054Z,25.3
2022-08-20T07:39:06.285Z,25.5
2022-08-20T07:41:09.827Z,25.1
2022-08-20T07:43:16.558Z,25.3
2022-08-20T07:45:20.434Z,25.7
2022-08-20T07:47:24.302Z,25.4
2022-08-20T07:49:28.204Z,25.9
2022-08-20T07:51:32.040Z,26.4
2022-08-20T07:53:36.313Z,26.6
2022-08-20T07:55:39.757Z,25.8
2022-08-20T07:57:46.447Z,25.6
2022-08-20T08:01:54.100Z,25
2022-08-20T08:06:01.738Z,24.1
2022-08-20T08:08:07.327Z,23.7
2022-08-20T08:10:09.399Z,23.7
2022-08-20T08:12:16.030Z,24.6
2022-08-20T08:14:19.836Z,24.8
2022-08-20T08:16:23.612Z,25.2
2022-08-20T08:18:31.725Z,24.6
2022-08-20T08:22:34.958Z,24.7
2022-08-20T08:24:38.728Z,24.8
2022-08-20T08:26:45.351Z,24.7
2022-08-20T08:28:49.119Z,24.3
2022-08-20T08:30:52.895Z,25
2022-08-20T08:33:16.368Z,25
2022-08-20T08:35:20.149Z,25.1
2022-08-20T08:37:26.119Z,25.7
2022-08-20T08:39:33.441Z,25.5
2022-08-20T08:43:37.934Z,25
2022-08-20T08:47:45.395Z,25.2
2022-08-20T08:51:52.834Z,26.2
2022-08-20T08:56:03.198Z,25.5
2022-08-20T08:58:16.887Z,25.6
2022-08-20T09:00:10.605Z,25.7
2022-08-20T09:02:14.342Z,25.2
2022-08-20T09:04:18.031Z,25.8
2022-08-20T09:08:28.289Z,26.3
2022-08-20T09:12:35.703Z,26
2022-08-20T09:14:39.381Z,25.9
2022-08-20T09:16:52.293Z,26
2022-08-20T09:18:46.763Z,27.1
2022-08-20T09:20:50.461Z,27.2
2022-08-20T09:27:04.409Z,26.9
2022-08-20T09:28:07.703Z,26.5
2022-08-20T09:32:15.032Z,25.8
2022-08-20T09:34:18.736Z,25
2022-08-20T09:36:32.080Z,26.7
2022-08-20T09:38:28.982Z,27.4
2022-08-20T09:40:32.650Z,28
2022-08-20T09:42:40.406Z,26.6
2022-08-20T09:44:40.055Z,26.4
2022-08-20T09:46:43.730Z,25.7
2022-08-20T09:50:53.985Z,24.9
2022-08-20T09:52:57.767Z,24.6
2022-08-20T10:01:14.196Z,23.4
2022-08-20T10:03:16.354Z,24
2022-08-20T10:05:22.989Z,23.9
2022-08-20T10:07:26.782Z,24.5
2022-08-20T10:09:30.562Z,25.7
2022-08-20T10:11:34.350Z,26.4
2022-08-20T10:13:38.129Z,27.3
2022-08-20T10:15:42.022Z,27.4
2022-08-20T10:17:45.697Z,27
2022-08-20T10:19:52.362Z,27.1
2022-08-20T10:21:56.112Z,26.8
2022-08-20T10:25:03.247Z,25.2
2022-08-20T10:27:07.004Z,24.6
2022-08-20T10:29:10.764Z,24.1
2022-08-20T10:31:14.555Z,24
2022-08-20T10:33:21.229Z,24.1
2022-08-20T10:35:24.968Z,24.2
2022-08-20T10:39:32.570Z,26.1
2022-08-20T10:45:43.937Z,26.2
2022-08-20T10:49:54.376Z,27.7
2022-08-20T10:56:05.720Z,28.3
2022-08-20T11:00:13.265Z,28.5
2022-08-20T11:04:23.587Z,28.7
2022-08-20T11:06:27.350Z,30
2022-08-20T11:08:34.045Z,29.5
2022-08-20T11:10:34.784Z,29
2022-08-20T11:12:38.480Z,28.4
2022-08-20T11:14:42.202Z,28
2022-08-20T11:16:48.780Z,26.6
2022-08-20T11:18:53.321Z,26.8
2022-08-20T11:20:57.015Z,27.8
2022-08-20T11:22:00.300Z,27
2022-08-20T11:24:04.012Z,28
2022-08-20T11:26:07.704Z,28.6
2022-08-20T11:28:11.402Z,27.6
2022-08-20T11:30:17.995Z,26.5
2022-08-20T11:32:21.682Z,26.8
2022-08-20T11:34:25.376Z,27.2
2022-08-20T11:36:29.091Z,28.3
2022-08-20T11:38:32.783Z,27.6
2022-08-20T11:40:36.471Z,28.2
2022-08-20T11:42:58.373Z,28.5
2022-08-20T11:44:46.772Z,27.9
2022-08-20T11:46:50.484Z,28.6
2022-08-20T11:48:54.160Z,29.4
2022-08-20T11:50:57.844Z,28.7
2022-08-20T11:55:05.270Z,26.4
2022-08-20T11:59:15.554Z,27.8
2022-08-20T12:01:19.255Z,28.5
2022-08-20T12:03:23.080Z,29.1
2022-08-20T12:05:26.723Z,29.9
2022-08-20T12:11:37.890Z,30.8
2022-08-20T12:13:47.857Z,30.8
2022-08-20T12:15:48.231Z,30.4
2022-08-20T12:17:51.958Z,28.2
2022-08-20T12:22:25.572Z,30.2
2022-08-20T12:26:35.511Z,30.6
2022-08-20T12:30:42.931Z,32.6
2022-08-20T12:32:46.622Z,32.8
2022-08-20T12:34:50.330Z,31.6
2022-08-20T12:36:54.054Z,32.2
2022-08-20T12:41:04.350Z,33.3
2022-08-20T12:43:08.029Z,32.8
2022-08-20T12:47:15.432Z,29.6
2022-08-20T12:51:22.836Z,28
2022-08-20T12:55:33.156Z,31.4
2022-08-20T12:57:36.859Z,31.4
2022-08-20T13:05:53.186Z,33.7
2022-08-20T13:07:56.909Z,33.9
2022-08-20T13:10:03.507Z,34.2
2022-08-20T13:12:07.217Z,33
2022-08-20T13:14:10.917Z,32.6
2022-08-20T13:15:14.183Z,32.3
2022-08-20T13:17:17.888Z,31.8
2022-08-20T13:21:25.302Z,32.2
2022-08-20T13:23:31.888Z,32.2
2022-08-20T13:25:35.596Z,31.8
2022-08-20T13:27:39.274Z,32.1
2022-08-20T13:29:42.968Z,32.1
2022-08-20T13:31:46.688Z,32.4
2022-08-20T13:33:50.372Z,32
2022-08-20T13:35:54.067Z,31.8
2022-08-20T13:38:00.640Z,29.9
2022-08-20T13:40:04.498Z,29.3
2022-08-20T13:42:08.063Z,28.2
2022-08-20T13:44:11.762Z,27.1
2022-08-20T13:46:15.473Z,28.8
2022-08-20T13:48:19.186Z,27.8
2022-08-20T13:50:22.913Z,28.5
2022-08-20T13:52:29.539Z,29.4
2022-08-20T13:54:33.268Z,29.6
2022-08-20T13:56:37.002Z,29.4
2022-08-20T13:58:40.726Z,29.3
2022-08-20T14:00:44.499Z,28.3
2022-08-20T14:02:48.211Z,28.8
2022-08-20T14:04:51.965Z,29
2022-08-20T14:06:58.752Z,28
2022-08-20T14:09:02.304Z,27.8
2022-08-20T14:11:06.047Z,27.2
2022-08-20T14:12:09.361Z,27
2022-08-20T14:14:13.109Z,26.8
2022-08-20T14:16:21.371Z,26.6
2022-08-20T14:18:20.611Z,26.6
2022-08-20T14:20:29.347Z,26.4
2022-08-20T14:22:31.005Z,26.2
2022-08-20T14:24:34.771Z,26.2
2022-08-20T14:26:38.536Z,26.5
2022-08-20T14:28:42.312Z,27.4
2022-08-20T14:30:46.101Z,26.6
2022-08-20T14:32:49.985Z,26.3
2022-08-20T14:34:56.513Z,25.6
2022-08-20T14:37:00.278Z,25.8
2022-08-20T14:39:04.081Z,25.9
2022-08-20T14:41:07.858Z,25.9
2022-08-20T14:43:11.642Z,25.9
2022-08-20T14:45:15.461Z,25.7
2022-08-20T14:47:19.255Z,25.6
2022-08-20T14:49:25.926Z,25.7
2022-08-20T14:51:29.717Z,25.8
2022-08-20T14:53:36.419Z,25.8
2022-08-20T14:55:37.385Z,25.7
2022-08-20T14:59:44.979Z,25.8
2022-08-20T15:01:48.791Z,26.3
2022-08-20T15:03:55.473Z,26.9
2022-08-20T15:05:59.282Z,26.8
2022-08-20T15:08:03.111Z,26.7
2022-08-20T15:09:06.433Z,27
2022-08-20T15:11:10.264Z,27.3
2022-08-20T15:13:14.085Z,27.5
2022-08-20T15:15:17.881Z,27.1
2022-08-20T15:17:24.554Z,27.2
2022-08-20T15:19:28.367Z,27.2
2022-08-20T15:21:44.820Z,26.7
2022-08-20T15:23:35.991Z,26.3
2022-08-20T15:25:39.789Z,26.3
2022-08-20T15:27:43.596Z,26.2
2022-08-20T15:31:54.097Z,25.5
2022-08-20T15:33:57.903Z,25.5
2022-08-20T15:36:01.722Z,25.4
2022-08-20T15:38:05.555Z,25.4
2022-08-20T15:40:09.398Z,25.7
2022-08-20T15:42:13.195Z,26.1
2022-08-20T15:44:17.018Z,26.6
2022-08-20T15:46:25.182Z,26.3
2022-08-20T15:48:27.548Z,26.2
2022-08-20T15:50:31.374Z,26.4
2022-08-20T15:52:36.852Z,26.1
2022-08-20T15:54:39.030Z,25.9
2022-08-20T15:56:42.857Z,26
2022-08-20T15:58:46.714Z,26.3
2022-08-20T16:00:53.462Z,25.9
2022-08-20T16:02:57.402Z,25.8
2022-08-20T16:05:01.097Z,25.3
2022-08-20T16:07:24.834Z,25.4
2022-08-20T16:09:28.678Z,25.4
2022-08-20T16:11:32.549Z,25.6
2022-08-20T16:13:39.242Z,25.5
2022-08-20T16:15:47.465Z,25.5
2022-08-20T16:17:46.933Z,25.5
2022-08-20T16:19:50.787Z,25.3
2022-08-20T16:23:58.464Z,25.1
2022-08-20T16:26:02.343Z,25
2022-08-20T16:28:09.041Z,24.5
2022-08-20T16:30:14.677Z,24.6
2022-08-20T16:32:16.726Z,24.5
2022-08-20T16:34:29.892Z,24.5
2022-08-20T16:36:24.468Z,24.3
2022-08-20T16:38:28.329Z,24.4
2022-08-20T16:40:32.174Z,24.4
2022-08-20T16:42:38.883Z,24.5
2022-08-20T16:44:42.753Z,24.5
2022-08-20T16:46:46.659Z,24.5
2022-08-20T16:48:50.521Z,24.5
2022-08-20T16:50:54.386Z,24.3
2022-08-20T16:52:58.433Z,24.2
2022-08-20T16:55:02.116Z,24
2022-08-20T16:57:09.625Z,24.1
2022-08-20T16:59:12.715Z,24.1
2022-08-20T17:01:16.683Z,23.9
2022-08-20T17:02:19.949Z,23.8
2022-08-20T17:04:23.830Z,23.7
2022-08-20T17:08:31.573Z,23.6
2022-08-20T17:10:38.295Z,23.5
2022-08-20T17:12:42.161Z,23.6
2022-08-20T17:14:49.756Z,23.7
2022-08-20T17:16:49.935Z,24.1
2022-08-20T17:20:57.716Z,25.2
2022-08-20T17:23:01.580Z,25
2022-08-20T17:27:12.190Z,24.5
2022-08-20T17:29:16.092Z,23.8
2022-08-20T17:31:19.958Z,23.7
2022-08-20T17:33:23.863Z,23.9
2022-08-20T17:35:27.718Z,23.6
2022-08-20T17:37:33.547Z,23.3
2022-08-20T17:39:38.394Z,23.1
2022-08-20T17:41:42.219Z,23
2022-08-20T17:43:46.111Z,22.7
2022-08-20T17:45:50.021Z,22.6
2022-08-20T17:47:53.924Z,22.5
2022-08-20T17:50:02.555Z,22.4
2022-08-20T17:52:01.707Z,22.4
2022-08-20T17:54:08.439Z,22.2
2022-08-20T17:56:12.351Z,22.2
2022-08-20T17:58:16.252Z,22.2
2022-08-20T18:01:23.613Z,22.1
2022-08-20T18:03:27.427Z,22.1
2022-08-20T18:05:31.342Z,22.1
2022-08-20T18:07:38.079Z,21.9
2022-08-20T18:09:44.681Z,21.9
2022-08-20T18:11:45.904Z,21.8
2022-08-20T18:13:49.825Z,21.7
2022-08-20T18:15:53.736Z,21.6
2022-08-20T18:17:57.657Z,21.6
2022-08-20T18:20:01.567Z,21.5
2022-08-20T18:22:08.316Z,21.4
2022-08-20T18:24:12.240Z,21.3
2022-08-20T18:26:16.177Z,21.3
2022-08-20T18:28:20.099Z,21.2
2022-08-20T18:30:24.012Z,21.2
2022-08-20T18:32:27.957Z,21.1
2022-08-20T18:34:31.862Z,21.1
2022-08-20T18:36:38.623Z,21
2022-08-20T18:38:42.575Z,20.9
2022-08-20T18:40:46.476Z,20.9
2022-08-20T18:42:50.434Z,20.8
2022-08-20T18:44:54.329Z,20.8
2022-08-20T18:46:58.272Z,20.7
2022-08-20T18:49:02.207Z,20.7
2022-08-20T18:51:08.985Z,20.6
2022-08-20T18:53:12.897Z,20.5
2022-08-20T18:55:16.835Z,20.5
2022-08-20T18:56:20.210Z,20.4
2022-08-20T18:58:25.646Z,20.4
2022-08-20T19:00:30.704Z,20.4
2022-08-20T19:02:33.472Z,20.3
2022-08-20T19:04:40.241Z,20.2
2022-08-20T19:10:52.040Z,20.1
2022-08-20T19:14:59.920Z,20
2022-08-20T19:25:22.476Z,19.8
2022-08-20T19:27:26.404Z,19.7
2022-08-20T19:29:30.354Z,19.7
2022-08-20T19:31:34.292Z,19.6
2022-08-20T19:33:44.284Z,19.6
2022-08-20T19:35:44.999Z,19.6
2022-08-20T19:37:51.292Z,19.6
2022-08-20T19:39:52.901Z,19.6
2022-08-20T19:41:56.810Z,19.5
2022-08-20T19:44:00.738Z,19.4
2022-08-20T19:46:04.692Z,19.4
2022-08-20T19:48:11.506Z,19.3
2022-08-20T19:50:15.414Z,19.4
2022-08-20T19:52:19.334Z,19.4
2022-08-20T19:54:49.035Z,19.3
2022-08-20T19:56:53.154Z,19.3
2022-08-20T19:58:56.953Z,19.2
2022-08-20T20:01:03.908Z,19.2
2022-08-20T20:03:07.653Z,19.1
2022-08-20T20:05:11.591Z,19.2
2022-08-20T20:07:15.542Z,19.1
2022-08-20T20:09:19.483Z,19.1
2022-08-20T20:11:23.423Z,19
2022-08-20T20:13:27.359Z,18.9
2022-08-20T20:15:34.128Z,18.9
2022-08-20T20:17:38.079Z,18.9
2022-08-20T20:19:42.031Z,18.8
2022-08-20T20:21:46.088Z,18.8
2022-08-20T20:23:49.902Z,18.7
2022-08-20T20:25:53.858Z,18.7
2022-08-20T20:27:57.805Z,18.6
2022-08-20T20:30:04.616Z,18.6
2022-08-20T20:32:08.560Z,18.6
2022-08-20T20:34:12.473Z,18.5
2022-08-20T20:36:16.443Z,18.5
2022-08-20T20:38:20.357Z,18.4
2022-08-20T20:40:25.409Z,18.3
2022-08-20T20:44:37.337Z,18.4
2022-08-20T20:48:42.923Z,18.4
2022-08-20T20:49:46.310Z,18.4
2022-08-20T20:51:50.263Z,18.4
2022-08-20T20:53:55.068Z,18.4
2022-08-20T20:55:58.170Z,18.3
2022-08-20T20:58:04.953Z,18.3
2022-08-20T21:00:08.911Z,18.3
2022-08-20T21:02:12.896Z,18.2
2022-08-20T21:04:16.804Z,18.1
2022-08-20T21:06:20.746Z,18
2022-08-20T21:08:24.702Z,18
2022-08-20T21:12:35.450Z,17.9
2022-08-20T21:27:05.958Z,17.4
2022-08-20T21:29:09.876Z,17.4
2022-08-20T21:35:21.746Z,17.3
2022-08-20T21:37:25.702Z,17.2
2022-08-20T21:41:36.419Z,17.1
2022-08-20T21:43:40.354Z,17.1
2022-08-20T21:45:44.330Z,17.1
2022-08-20T21:46:47.696Z,17
2022-08-20T21:48:51.636Z,17
2022-08-20T21:50:55.650Z,16.9
2022-08-20T21:55:06.332Z,16.7
2022-08-20T21:57:10.281Z,16.7
2022-08-20T21:59:14.232Z,16.7
2022-08-20T22:03:22.150Z,16.6
2022-08-20T22:05:26.097Z,16.6
2022-08-20T22:07:30.049Z,16.6
2022-08-20T22:09:36.847Z,16.6
2022-08-20T22:11:40.807Z,16.5
2022-08-20T22:13:44.777Z,16.5
2022-08-20T22:19:56.632Z,16.4
2022-08-20T22:22:00.615Z,16.4
2022-08-20T22:32:33.258Z,16.3
2022-08-20T22:36:31.120Z,16.2
2022-08-20T22:40:41.869Z,16.1
2022-08-20T22:42:45.806Z,16.1
2022-08-20T22:43:56.848Z,16
2022-08-20T22:45:53.838Z,16
2022-08-20T22:47:57.777Z,16
2022-08-20T22:50:01.785Z,16
2022-08-20T22:52:08.550Z,15.9
2022-08-20T22:54:12.497Z,15.9
2022-08-20T22:56:19.966Z,15.8
2022-08-20T22:58:20.400Z,15.7
2022-08-20T23:00:24.338Z,15.7
2022-08-20T23:02:28.312Z,15.7
2022-08-20T23:04:32.255Z,15.6
2022-08-20T23:08:42.981Z,15.5
2022-08-20T23:10:46.905Z,15.6
2022-08-20T23:12:50.874Z,15.5
2022-08-20T23:14:54.820Z,15.5
2022-08-20T23:16:58.809Z,15.4
2022-08-20T23:19:02.821Z,15.4
2022-08-20T23:21:09.515Z,15.3
2022-08-20T23:23:13.463Z,15.3
2022-08-20T23:25:17.424Z,15.3
2022-08-20T23:27:21.374Z,15.2
2022-08-20T23:29:26.071Z,15.3
2022-08-20T23:33:33.265Z,15.3
2022-08-20T23:35:40.018Z,15.3
2022-08-20T23:37:43.977Z,15.2
2022-08-20T23:39:47.975Z,15.2
2022-08-20T23:42:17.676Z,15.1
2022-08-20T23:44:26.471Z,15.1
2022-08-20T23:46:25.571Z,15
2022-08-20T23:48:32.325Z,14.9
2022-08-20T23:52:40.227Z,14.9
2022-08-20T23:54:44.155Z,14.9
2022-08-20T23:56:48.107Z,14.8
2022-08-20T23:58:52.066Z,14.8
